sensor_id;sensor_type;location;lat;lon;timestamp;pressure;altitude;pressure_sealevel;temperature;humidity
74798;BME280;63326;45.088;7.658;2023-04-01T00:01:04;97692.72;;;12.93;30.46
74798;BME280;63326;45.088;7.658;2023-04-01T00:03:32;97671.88;;;12.89;30.49
74798;BME280;63326;45.088;7.658;2023-04-01T00:06:00;97675.53;;;12.94;30.33
74798;BME280;63326;45.088;7.658;2023-04-01T00:08:28;97668.94;;;12.90;30.10
74798;BME280;63326;45.088;7.658;2023-04-01T00:10:55;97666.63;;;12.94;29.99
74798;BME280;63326;45.088;7.658;2023-04-01T00:13:24;97671.78;;;12.95;30.25
74798;BME280;63326;45.088;7.658;2023-04-01T00:15:54;97636.81;;;12.95;29.87
74798;BME280;63326;45.088;7.658;2023-04-01T00:18:22;97660.75;;;13.04;29.32
74798;BME280;63326;45.088;7.658;2023-04-01T00:20:50;97654.31;;;13.05;29.28
74798;BME280;63326;45.088;7.658;2023-04-01T00:23:18;97652.63;;;13.10;29.05
74798;BME280;63326;45.088;7.658;2023-04-01T00:25:45;97650.28;;;13.14;28.44
74798;BME280;63326;45.088;7.658;2023-04-01T00:28:17;97666.78;;;13.24;28.50
74798;BME280;63326;45.088;7.658;2023-04-01T00:30:45;97666.19;;;13.22;28.81
74798;BME280;63326;45.088;7.658;2023-04-01T00:33:11;97657.19;;;13.10;28.94
74798;BME280;63326;45.088;7.658;2023-04-01T00:35:38;97640.31;;;12.96;29.84
74798;BME280;63326;45.088;7.658;2023-04-01T00:38:06;97631.16;;;13.04;29.07
74798;BME280;63326;45.088;7.658;2023-04-01T00:40:36;97668.88;;;13.22;28.87
74798;BME280;63326;45.088;7.658;2023-04-01T00:43:16;97649.03;;;13.16;29.02
74798;BME280;63326;45.088;7.658;2023-04-01T00:45:46;97646.03;;;13.06;29.40
74798;BME280;63326;45.088;7.658;2023-04-01T00:48:21;97643.09;;;13.08;29.26
74798;BME280;63326;45.088;7.658;2023-04-01T00:50:53;97617.66;;;12.85;29.31
74798;BME280;63326;45.088;7.658;2023-04-01T00:53:21;97610.53;;;12.97;28.62
74798;BME280;63326;45.088;7.658;2023-04-01T00:55:56;97641.97;;;13.22;28.94
74798;BME280;63326;45.088;7.658;2023-04-01T00:58:26;97645.19;;;13.06;29.05
74798;BME280;63326;45.088;7.658;2023-04-01T01:00:56;97632.47;;;12.94;28.94
74798;BME280;63326;45.088;7.658;2023-04-01T01:03:25;97608.53;;;12.86;28.97
74798;BME280;63326;45.088;7.658;2023-04-01T01:06:11;97629.09;;;12.81;29.37
74798;BME280;63326;45.088;7.658;2023-04-01T01:09:06;97647.97;;;12.74;30.09
74798;BME280;63326;45.088;7.658;2023-04-01T01:12:23;97641.19;;;12.47;30.05
74798;BME280;63326;45.088;7.658;2023-04-01T01:14:39;97642.22;;;12.46;30.32
74798;BME280;63326;45.088;7.658;2023-04-01T01:20:24;97637.94;;;12.38;29.15
74798;BME280;63326;45.088;7.658;2023-04-01T01:31:16;97649.69;;;12.12;30.56
74798;BME280;63326;45.088;7.658;2023-04-01T01:36:19;97640.06;;;12.29;29.41
74798;BME280;63326;45.088;7.658;2023-04-01T01:38:48;97596.00;;;12.05;29.84
74798;BME280;63326;45.088;7.658;2023-04-01T01:41:18;97635.06;;;12.08;30.39
74798;BME280;63326;45.088;7.658;2023-04-01T01:43:48;97614.19;;;12.03;29.83
74798;BME280;63326;45.088;7.658;2023-04-01T01:46:23;97608.47;;;12.25;29.48
74798;BME280;63326;45.088;7.658;2023-04-01T01:48:51;97604.63;;;12.64;27.88
74798;BME280;63326;45.088;7.658;2023-04-01T01:51:19;97623.53;;;13.01;27.35
74798;BME280;63326;45.088;7.658;2023-04-01T01:53:47;97610.13;;;12.94;27.39
74798;BME280;63326;45.088;7.658;2023-04-01T01:56:18;97627.50;;;12.98;27.34
74798;BME280;63326;45.088;7.658;2023-04-01T01:58:49;97614.00;;;12.80;28.01
74798;BME280;63326;45.088;7.658;2023-04-01T02:01:24;97608.34;;;12.88;28.24
74798;BME280;63326;45.088;7.658;2023-04-01T02:03:57;97635.41;;;12.93;28.25
74798;BME280;63326;45.088;7.658;2023-04-01T02:06:27;97614.00;;;12.80;28.00
74798;BME280;63326;45.088;7.658;2023-04-01T02:08:57;97625.50;;;12.87;28.30
74798;BME280;63326;45.088;7.658;2023-04-01T02:11:30;97579.72;;;12.93;27.86
74798;BME280;63326;45.088;7.658;2023-04-01T02:14:20;97625.22;;;13.20;28.44
74798;BME280;63326;45.088;7.658;2023-04-01T02:16:58;97622.31;;;13.21;28.24
74798;BME280;63326;45.088;7.658;2023-04-01T02:19:32;97636.19;;;13.18;28.96
74798;BME280;63326;45.088;7.658;2023-04-01T02:22:02;97636.31;;;13.05;29.32
74798;BME280;63326;45.088;7.658;2023-04-01T02:24:31;97650.88;;;13.16;29.40
74798;BME280;63326;45.088;7.658;2023-04-01T02:27:00;97620.38;;;13.04;29.73
74798;BME280;63326;45.088;7.658;2023-04-01T02:29:29;97622.00;;;12.86;30.54
74798;BME280;63326;45.088;7.658;2023-04-01T02:31:56;97621.41;;;12.84;30.52
74798;BME280;63326;45.088;7.658;2023-04-01T02:34:25;97641.31;;;12.77;31.89
74798;BME280;63326;45.088;7.658;2023-04-01T02:36:52;97647.84;;;12.69;32.58
74798;BME280;63326;45.088;7.658;2023-04-01T02:39:21;97620.53;;;12.65;32.82
74798;BME280;63326;45.088;7.658;2023-04-01T02:41:48;97641.19;;;12.72;32.92
74798;BME280;63326;45.088;7.658;2023-04-01T02:44:15;97624.03;;;12.48;34.08
74798;BME280;63326;45.088;7.658;2023-04-01T02:46:43;97636.66;;;12.47;34.61
74798;BME280;63326;45.088;7.658;2023-04-01T02:49:10;97646.94;;;12.50;34.75
74798;BME280;63326;45.088;7.658;2023-04-01T02:51:37;97646.41;;;12.42;35.28
74798;BME280;63326;45.088;7.658;2023-04-01T02:54:04;97665.25;;;12.35;35.62
74798;BME280;63326;45.088;7.658;2023-04-01T02:56:31;97611.81;;;12.20;35.99
74798;BME280;63326;45.088;7.658;2023-04-01T02:58:57;97655.66;;;12.14;36.19
74798;BME280;63326;45.088;7.658;2023-04-01T03:01:24;97649.94;;;12.04;36.48
74798;BME280;63326;45.088;7.658;2023-04-01T03:03:51;97655.75;;;12.01;36.75
74798;BME280;63326;45.088;7.658;2023-04-01T03:06:18;97655.97;;;11.99;36.62
74798;BME280;63326;45.088;7.658;2023-04-01T03:08:45;97639.66;;;11.94;37.14
74798;BME280;63326;45.088;7.658;2023-04-01T03:11:13;97634.72;;;11.98;36.54
74798;BME280;63326;45.088;7.658;2023-04-01T03:13:39;97643.59;;;11.98;36.53
74798;BME280;63326;45.088;7.658;2023-04-01T03:16:06;97618.19;;;11.94;36.26
74798;BME280;63326;45.088;7.658;2023-04-01T03:18:34;97648.06;;;12.11;35.38
74798;BME280;63326;45.088;7.658;2023-04-01T03:21:22;97661.63;;;12.23;34.95
74798;BME280;63326;45.088;7.658;2023-04-01T03:23:49;97635.97;;;12.27;34.90
74798;BME280;63326;45.088;7.658;2023-04-01T03:26:17;97625.28;;;12.14;35.57
74798;BME280;63326;45.088;7.658;2023-04-01T03:28:44;97648.88;;;12.11;36.12
74798;BME280;63326;45.088;7.658;2023-04-01T03:31:12;97625.63;;;11.92;36.84
74798;BME280;63326;45.088;7.658;2023-04-01T03:33:46;97624.47;;;11.81;36.55
74798;BME280;63326;45.088;7.658;2023-04-01T03:36:12;97627.94;;;11.89;35.21
74798;BME280;63326;45.088;7.658;2023-04-01T03:38:43;97634.63;;;12.11;34.61
74798;BME280;63326;45.088;7.658;2023-04-01T03:41:16;97615.91;;;11.98;33.89
74798;BME280;63326;45.088;7.658;2023-04-01T03:43:43;97641.59;;;12.19;32.87
74798;BME280;63326;45.088;7.658;2023-04-01T03:46:10;97619.16;;;12.06;32.53
74798;BME280;63326;45.088;7.658;2023-04-01T03:48:37;97637.16;;;12.06;32.80
74798;BME280;63326;45.088;7.658;2023-04-01T03:51:07;97645.16;;;12.13;32.70
74798;BME280;63326;45.088;7.658;2023-04-01T03:53:34;97629.09;;;12.06;32.60
74798;BME280;63326;45.088;7.658;2023-04-01T03:56:07;97646.78;;;12.14;32.72
74798;BME280;63326;45.088;7.658;2023-04-01T03:58:36;97657.50;;;12.20;32.10
74798;BME280;63326;45.088;7.658;2023-04-01T04:01:24;97670.28;;;12.25;32.19
74798;BME280;63326;45.088;7.658;2023-04-01T04:03:54;97654.13;;;12.31;31.84
74798;BME280;63326;45.088;7.658;2023-04-01T04:06:22;97646.06;;;12.31;31.94
74798;BME280;63326;45.088;7.658;2023-04-01T04:08:49;97661.34;;;12.31;31.84
74798;BME280;63326;45.088;7.658;2023-04-01T04:11:16;97665.13;;;12.23;32.15
74798;BME280;63326;45.088;7.658;2023-04-01T04:13:43;97632.03;;;11.98;32.12
74798;BME280;63326;45.088;7.658;2023-04-01T04:16:11;97668.88;;;12.16;32.02
74798;BME280;63326;45.088;7.658;2023-04-01T04:18:42;97673.88;;;12.12;31.70
74798;BME280;63326;45.088;7.658;2023-04-01T04:21:14;97657.19;;;12.03;31.47
74798;BME280;63326;45.088;7.658;2023-04-01T04:23:42;97659.25;;;12.08;31.73
74798;BME280;63326;45.088;7.658;2023-04-01T04:26:14;97659.28;;;11.95;31.99
74798;BME280;63326;45.088;7.658;2023-04-01T04:28:46;97666.16;;;11.91;31.96
74798;BME280;63326;45.088;7.658;2023-04-01T04:31:22;97675.34;;;12.08;31.46
74798;BME280;63326;45.088;7.658;2023-04-01T04:33:50;97664.66;;;11.95;31.48
74798;BME280;63326;45.088;7.658;2023-04-01T04:36:17;97670.81;;;12.08;30.84
74798;BME280;63326;45.088;7.658;2023-04-01T04:38:45;97670.84;;;12.02;30.63
74798;BME280;63326;45.088;7.658;2023-04-01T04:41:14;97648.91;;;12.05;29.76
74798;BME280;63326;45.088;7.658;2023-04-01T04:43:50;97663.44;;;11.97;30.42
74798;BME280;63326;45.088;7.658;2023-04-01T04:46:17;97648.06;;;12.04;29.72
74798;BME280;63326;45.088;7.658;2023-04-01T04:48:46;97664.16;;;12.11;29.54
74798;BME280;63326;45.088;7.658;2023-04-01T04:51:16;97650.75;;;12.11;30.06
74798;BME280;63326;45.088;7.658;2023-04-01T04:53:45;97670.19;;;12.06;30.36
74798;BME280;63326;45.088;7.658;2023-04-01T04:56:18;97666.34;;;11.96;30.62
74798;BME280;63326;45.088;7.658;2023-04-01T04:58:53;97631.75;;;11.68;31.11
74798;BME280;63326;45.088;7.658;2023-04-01T05:01:24;97634.22;;;11.69;31.44
74798;BME280;63326;45.088;7.658;2023-04-01T05:03:51;97671.72;;;11.89;31.70
74798;BME280;63326;45.088;7.658;2023-04-01T05:06:19;97680.84;;;11.81;32.13
74798;BME280;63326;45.088;7.658;2023-04-01T05:08:49;97667.22;;;11.76;31.86
74798;BME280;63326;45.088;7.658;2023-04-01T05:11:17;97632.56;;;11.68;31.84
74798;BME280;63326;45.088;7.658;2023-04-01T05:13:45;97666.19;;;11.77;31.87
74798;BME280;63326;45.088;7.658;2023-04-01T05:16:15;97664.53;;;11.83;31.90
74798;BME280;63326;45.088;7.658;2023-04-01T05:18:42;97677.09;;;11.89;32.27
74798;BME280;63326;45.088;7.658;2023-04-01T05:21:11;97659.34;;;11.75;32.76
74798;BME280;63326;45.088;7.658;2023-04-01T05:23:38;97657.75;;;11.67;33.47
74798;BME280;63326;45.088;7.658;2023-04-01T05:26:07;97675.53;;;11.68;33.62
74798;BME280;63326;45.088;7.658;2023-04-01T05:28:35;97671.44;;;11.59;34.25
74798;BME280;63326;45.088;7.658;2023-04-01T05:31:03;97672.09;;;11.48;34.56
74798;BME280;63326;45.088;7.658;2023-04-01T05:33:34;97666.13;;;11.39;34.59
74798;BME280;63326;45.088;7.658;2023-04-01T05:36:05;97709.19;;;11.64;34.36
74798;BME280;63326;45.088;7.658;2023-04-01T05:38:32;97684.69;;;11.47;34.46
74798;BME280;63326;45.088;7.658;2023-04-01T05:41:02;97689.63;;;11.50;34.56
74798;BME280;63326;45.088;7.658;2023-04-01T05:43:31;97709.84;;;11.60;34.49
74798;BME280;63326;45.088;7.658;2023-04-01T05:46:18;97706.09;;;11.61;34.43
74798;BME280;63326;45.088;7.658;2023-04-01T05:48:51;97715.41;;;11.58;34.85
74798;BME280;63326;45.088;7.658;2023-04-01T05:51:19;97696.41;;;11.53;34.58
74798;BME280;63326;45.088;7.658;2023-04-01T05:53:46;97708.63;;;11.56;34.58
74798;BME280;63326;45.088;7.658;2023-04-01T05:56:14;97724.06;;;11.60;34.89
74798;BME280;63326;45.088;7.658;2023-04-01T05:58:50;97724.28;;;11.65;34.42
74798;BME280;63326;45.088;7.658;2023-04-01T06:01:18;97686.34;;;11.48;34.22
74798;BME280;63326;45.088;7.658;2023-04-01T06:03:46;97705.88;;;11.62;34.17
74798;BME280;63326;45.088;7.658;2023-04-01T06:06:23;97727.13;;;11.83;34.41
74798;BME280;63326;45.088;7.658;2023-04-01T06:08:52;97704.47;;;11.60;34.40
74798;BME280;63326;45.088;7.658;2023-04-01T06:11:36;97717.88;;;11.66;34.35
74798;BME280;63326;45.088;7.658;2023-04-01T06:14:10;97724.44;;;11.83;34.55
74798;BME280;63326;45.088;7.658;2023-04-01T06:16:48;97722.97;;;11.88;34.06
74798;BME280;63326;45.088;7.658;2023-04-01T06:27:34;97726.88;;;11.98;33.89
74798;BME280;63326;45.088;7.658;2023-04-01T06:30:17;97713.75;;;12.15;33.10
74798;BME280;63326;45.088;7.658;2023-04-01T06:33:09;97719.13;;;12.15;33.49
74798;BME280;63326;45.088;7.658;2023-04-01T06:36:37;97712.38;;;12.37;32.75
74798;BME280;63326;45.088;7.658;2023-04-01T06:44:09;97729.41;;;12.56;32.26
74798;BME280;63326;45.088;7.658;2023-04-01T06:47:04;97713.09;;;12.58;32.44
74798;BME280;63326;45.088;7.658;2023-04-01T06:49:58;97733.44;;;12.72;32.03
74798;BME280;63326;45.088;7.658;2023-04-01T06:55:46;97732.63;;;12.96;31.21
74798;BME280;63326;45.088;7.658;2023-04-01T06:58:30;97732.69;;;13.15;31.20
74798;BME280;63326;45.088;7.658;2023-04-01T07:01:00;97722.59;;;13.10;30.95
74798;BME280;63326;45.088;7.658;2023-04-01T07:06:35;97738.72;;;13.35;30.35
74798;BME280;63326;45.088;7.658;2023-04-01T07:09:12;97744.09;;;13.35;31.23
74798;BME280;63326;45.088;7.658;2023-04-01T07:12:12;97747.06;;;13.52;30.45
74798;BME280;63326;45.088;7.658;2023-04-01T07:15:40;97733.72;;;13.57;30.60
74798;BME280;63326;45.088;7.658;2023-04-01T07:18:11;97719.16;;;13.83;29.71
74798;BME280;63326;45.088;7.658;2023-04-01T07:20:39;97721.94;;;14.25;29.35
74798;BME280;63326;45.088;7.658;2023-04-01T07:23:25;97728.50;;;14.47;29.04
74798;BME280;63326;45.088;7.658;2023-04-01T07:26:20;97721.34;;;14.94;28.06
74798;BME280;63326;45.088;7.658;2023-04-01T07:29:14;97711.13;;;15.20;27.08
74798;BME280;63326;45.088;7.658;2023-04-01T07:40:34;97724.81;;;16.57;24.99
74798;BME280;63326;45.088;7.658;2023-04-01T07:48:31;97730.19;;;17.70;23.60
74798;BME280;63326;45.088;7.658;2023-04-01T07:51:10;97726.16;;;17.94;22.43
74798;BME280;63326;45.088;7.658;2023-04-01T08:05:07;97736.59;;;18.78;20.08
74798;BME280;63326;45.088;7.658;2023-04-01T08:10:51;97744.25;;;19.88;20.02
74798;BME280;63326;45.088;7.658;2023-04-01T08:16:26;97731.00;;;20.84;20.84
74798;BME280;63326;45.088;7.658;2023-04-01T08:21:51;97731.50;;;21.68;20.10
74798;BME280;63326;45.088;7.658;2023-04-01T08:24:42;97728.94;;;22.12;18.03
74798;BME280;63326;45.088;7.658;2023-04-01T08:27:24;97726.56;;;21.80;17.43
74798;BME280;63326;45.088;7.658;2023-04-01T08:30:02;97733.88;;;22.00;17.03
74798;BME280;63326;45.088;7.658;2023-04-01T08:32:37;97726.56;;;21.80;15.67
74798;BME280;63326;45.088;7.658;2023-04-01T08:38:06;97731.75;;;21.81;16.28
74798;BME280;63326;45.088;7.658;2023-04-01T08:40:58;97715.53;;;22.05;15.42
74798;BME280;63326;45.088;7.658;2023-04-01T08:55:34;97733.00;;;20.26;16.95
74798;BME280;63326;45.088;7.658;2023-04-01T08:58:37;97725.00;;;21.18;16.04
74798;BME280;63326;45.088;7.658;2023-04-01T09:07:48;97730.41;;;20.67;16.69
74798;BME280;63326;45.088;7.658;2023-04-01T09:11:01;97728.09;;;19.71;16.93
74798;BME280;63326;45.088;7.658;2023-04-01T09:28:28;97726.38;;;23.82;13.92
74798;BME280;63326;45.088;7.658;2023-04-01T09:34:34;97724.38;;;22.52;14.76
74798;BME280;63326;45.088;7.658;2023-04-01T09:42:41;97716.16;;;22.07;15.14
74798;BME280;63326;45.088;7.658;2023-04-01T09:45:44;97715.56;;;23.04;14.77
74798;BME280;63326;45.088;7.658;2023-04-01T09:53:57;97721.44;;;23.79;13.11
74798;BME280;63326;45.088;7.658;2023-04-01T10:05:34;97708.94;;;23.73;13.24
74798;BME280;63326;45.088;7.658;2023-04-01T10:11:41;97710.34;;;23.08;13.83
74798;BME280;63326;45.088;7.658;2023-04-01T10:14:29;97708.41;;;23.13;13.80
74798;BME280;63326;45.088;7.658;2023-04-01T10:23:17;97699.41;;;23.71;13.30
74798;BME280;63326;45.088;7.658;2023-04-01T10:40:30;97681.44;;;24.07;12.67
74798;BME280;63326;45.088;7.658;2023-04-01T11:01:48;97675.72;;;24.84;11.16
74798;BME280;63326;45.088;7.658;2023-04-01T11:08:13;97672.84;;;23.95;11.51
74798;BME280;63326;45.088;7.658;2023-04-01T11:32:01;97664.81;;;27.66;8.47
74798;BME280;63326;45.088;7.658;2023-04-01T11:37:42;97669.56;;;27.74;9.18
74798;BME280;63326;45.088;7.658;2023-04-01T11:41:13;97672.31;;;27.74;8.84
74798;BME280;63326;45.088;7.658;2023-04-01T11:47:22;97663.31;;;25.38;10.37
74798;BME280;63326;45.088;7.658;2023-04-01T11:50:03;97645.28;;;28.42;8.52
74798;BME280;63326;45.088;7.658;2023-04-01T11:58:54;97636.03;;;29.16;8.02
74798;BME280;63326;45.088;7.658;2023-04-01T12:07:06;97614.84;;;29.84;7.21
74798;BME280;63326;45.088;7.658;2023-04-01T12:09:46;97631.28;;;27.33;8.62
74798;BME280;63326;45.088;7.658;2023-04-01T12:18:20;97634.25;;;26.69;9.42
74798;BME280;63326;45.088;7.658;2023-04-01T12:20:51;97623.09;;;25.47;9.85
74798;BME280;63326;45.088;7.658;2023-04-01T12:26:19;97611.28;;;27.50;8.84
74798;BME280;63326;45.088;7.658;2023-04-01T12:29:27;97588.25;;;27.46;8.84
74798;BME280;63326;45.088;7.658;2023-04-01T12:37:19;97610.38;;;29.15;8.22
74798;BME280;63326;45.088;7.658;2023-04-01T12:39:59;97587.38;;;28.33;8.81
74798;BME280;63326;45.088;7.658;2023-04-01T12:53:40;97585.53;;;29.07;7.63
74798;BME280;63326;45.088;7.658;2023-04-01T12:59:24;97570.47;;;30.10;7.33
74798;BME280;63326;45.088;7.658;2023-04-01T13:02:11;97587.53;;;28.63;7.46
74798;BME280;63326;45.088;7.658;2023-04-01T13:13:26;97575.94;;;30.81;6.75
74798;BME280;63326;45.088;7.658;2023-04-01T13:16:02;97584.66;;;27.76;8.30
74798;BME280;63326;45.088;7.658;2023-04-01T13:21:17;97569.09;;;29.19;7.88
74798;BME280;63326;45.088;7.658;2023-04-01T13:24:08;97581.84;;;29.03;7.67
74798;BME280;63326;45.088;7.658;2023-04-01T13:26:58;97550.63;;;26.12;9.00
74798;BME280;63326;45.088;7.658;2023-04-01T13:29:37;97569.22;;;28.32;8.39
74798;BME280;63326;45.088;7.658;2023-04-01T13:32:18;97563.13;;;29.17;7.76
74798;BME280;63326;45.088;7.658;2023-04-01T13:35:13;97564.50;;;26.88;9.47
74798;BME280;63326;45.088;7.658;2023-04-01T13:38:01;97558.13;;;27.98;8.93
74798;BME280;63326;45.088;7.658;2023-04-01T13:43:37;97554.88;;;29.46;7.53
74798;BME280;63326;45.088;7.658;2023-04-01T13:54:55;97540.66;;;28.02;7.64
74798;BME280;63326;45.088;7.658;2023-04-01T13:58:02;97541.88;;;29.47;7.22
74798;BME280;63326;45.088;7.658;2023-04-01T14:01:05;97551.56;;;28.51;7.46
74798;BME280;63326;45.088;7.658;2023-04-01T14:12:17;97527.78;;;29.99;6.71
74798;BME280;63326;45.088;7.658;2023-04-01T14:17:45;97518.97;;;30.47;6.79
74798;BME280;63326;45.088;7.658;2023-04-01T14:20:22;97533.41;;;29.81;6.61
74798;BME280;63326;45.088;7.658;2023-04-01T14:28:36;97514.78;;;29.02;7.10
74798;BME280;63326;45.088;7.658;2023-04-01T14:34:49;97502.88;;;29.57;7.32
74798;BME280;63326;45.088;7.658;2023-04-01T14:43:01;97499.63;;;28.61;7.45
74798;BME280;63326;45.088;7.658;2023-04-01T14:51:10;97498.66;;;29.51;6.94
74798;BME280;63326;45.088;7.658;2023-04-01T14:53:51;97489.91;;;29.99;6.71
74798;BME280;63326;45.088;7.658;2023-04-01T14:57:22;97492.25;;;26.74;7.86
74798;BME280;63326;45.088;7.658;2023-04-01T14:59:29;97496.88;;;27.83;7.93
74798;BME280;63326;45.088;7.658;2023-04-01T15:21:18;97499.53;;;25.89;8.74
74798;BME280;63326;45.088;7.658;2023-04-01T15:32:01;97485.88;;;24.27;10.49
74798;BME280;63326;45.088;7.658;2023-04-01T15:37:49;97482.63;;;23.93;11.15
74798;BME280;63326;45.088;7.658;2023-04-01T15:40:36;97481.13;;;23.20;11.30
74798;BME280;63326;45.088;7.658;2023-04-01T15:43:27;97483.69;;;22.24;12.12
74798;BME280;63326;45.088;7.658;2023-04-01T15:46:09;97472.78;;;21.85;12.41
74798;BME280;63326;45.088;7.658;2023-04-01T15:48:46;97485.84;;;22.27;11.82
74798;BME280;63326;45.088;7.658;2023-04-01T15:56:45;97476.31;;;22.59;11.97
74798;BME280;63326;45.088;7.658;2023-04-01T16:04:48;97467.59;;;26.15;9.71
74798;BME280;63326;45.088;7.658;2023-04-01T16:16:09;97466.69;;;25.06;9.67
74798;BME280;63326;45.088;7.658;2023-04-01T16:21:38;97459.16;;;23.68;11.06
74798;BME280;63326;45.088;7.658;2023-04-01T16:26:58;97466.38;;;22.39;12.08
74798;BME280;63326;45.088;7.658;2023-04-01T16:34:47;97460.25;;;20.65;13.50
74798;BME280;63326;45.088;7.658;2023-04-01T16:37:29;97429.94;;;20.82;13.72
74798;BME280;63326;45.088;7.658;2023-04-01T16:45:24;97464.06;;;20.33;13.85
74798;BME280;63326;45.088;7.658;2023-04-01T16:47:59;97445.59;;;20.05;13.89
74798;BME280;63326;45.088;7.658;2023-04-01T16:50:59;97460.00;;;20.05;14.00
74798;BME280;63326;45.088;7.658;2023-04-01T16:53:36;97449.91;;;20.01;14.19
74798;BME280;63326;45.088;7.658;2023-04-01T16:56:24;97461.06;;;19.99;14.47
74798;BME280;63326;45.088;7.658;2023-04-01T16:58:57;97456.44;;;19.90;14.69
74798;BME280;63326;45.088;7.658;2023-04-01T17:01:36;97451.53;;;19.81;14.95
74798;BME280;63326;45.088;7.658;2023-04-01T17:10:13;97456.31;;;19.23;15.67
74798;BME280;63326;45.088;7.658;2023-04-01T17:13:03;97447.28;;;19.08;15.58
74798;BME280;63326;45.088;7.658;2023-04-01T17:27:41;97431.81;;;18.13;16.73
74798;BME280;63326;45.088;7.658;2023-04-01T17:30:32;97448.09;;;18.13;16.81
74798;BME280;63326;45.088;7.658;2023-04-01T17:35:57;97459.88;;;17.97;17.14
74798;BME280;63326;45.088;7.658;2023-04-01T17:38:56;97456.31;;;17.92;17.19
74798;BME280;63326;45.088;7.658;2023-04-01T17:41:35;97461.44;;;17.88;17.37
74798;BME280;63326;45.088;7.658;2023-04-01T17:44:17;97479.25;;;17.79;17.90
74798;BME280;63326;45.088;7.658;2023-04-01T17:47:05;97476.66;;;17.67;18.26
74798;BME280;63326;45.088;7.658;2023-04-01T17:50:14;97458.56;;;17.46;18.04
74798;BME280;63326;45.088;7.658;2023-04-01T17:52:44;97456.31;;;17.38;18.20
74798;BME280;63326;45.088;7.658;2023-04-01T18:09:00;97489.78;;;17.26;18.29
74798;BME280;63326;45.088;7.658;2023-04-01T18:11:54;97483.78;;;17.24;18.05
74798;BME280;63326;45.088;7.658;2023-04-01T18:17:21;97480.22;;;17.19;18.38
74798;BME280;63326;45.088;7.658;2023-04-01T18:20:23;97487.28;;;17.20;18.50
74798;BME280;63326;45.088;7.658;2023-04-01T18:22:58;97482.56;;;17.10;18.44
74798;BME280;63326;45.088;7.658;2023-04-01T18:34:29;97497.91;;;17.05;19.15
74798;BME280;63326;45.088;7.658;2023-04-01T18:36:46;97501.94;;;17.02;19.06
74798;BME280;63326;45.088;7.658;2023-04-01T18:39:22;97508.94;;;16.98;18.80
74798;BME280;63326;45.088;7.658;2023-04-01T18:53:17;97526.00;;;16.98;19.72
74798;BME280;63326;45.088;7.658;2023-04-01T18:58:25;97528.38;;;16.95;19.76
74798;BME280;63326;45.088;7.658;2023-04-01T19:01:16;97532.16;;;16.94;19.71
74798;BME280;63326;45.088;7.658;2023-04-01T19:04:03;97532.84;;;16.84;19.98
74798;BME280;63326;45.088;7.658;2023-04-01T19:06:48;97530.88;;;16.80;20.32
74798;BME280;63326;45.088;7.658;2023-04-01T19:20:34;97546.03;;;16.64;21.00
74798;BME280;63326;45.088;7.658;2023-04-01T19:26:29;97537.19;;;16.52;21.03
74798;BME280;63326;45.088;7.658;2023-04-01T19:37:50;97547.31;;;16.39;21.07
74798;BME280;63326;45.088;7.658;2023-04-01T19:43:14;97562.78;;;16.44;22.01
74798;BME280;63326;45.088;7.658;2023-04-01T19:51:36;97577.28;;;16.21;22.94
74798;BME280;63326;45.088;7.658;2023-04-01T19:57:09;97579.66;;;16.18;23.11
74798;BME280;63326;45.088;7.658;2023-04-01T19:59:44;97584.16;;;16.12;23.51
74798;BME280;63326;45.088;7.658;2023-04-01T20:04:51;97572.25;;;15.96;24.10
74798;BME280;63326;45.088;7.658;2023-04-01T20:10:22;97586.09;;;16.00;24.26
74798;BME280;63326;45.088;7.658;2023-04-01T20:13:13;97579.88;;;15.99;23.94
74798;BME280;63326;45.088;7.658;2023-04-01T20:15:45;97575.94;;;15.90;24.07
74798;BME280;63326;45.088;7.658;2023-04-01T20:18:17;97577.00;;;15.89;24.19
74798;BME280;63326;45.088;7.658;2023-04-01T20:20:59;97587.56;;;15.91;24.12
74798;BME280;63326;45.088;7.658;2023-04-01T20:23:33;97588.47;;;15.96;23.87
74798;BME280;63326;45.088;7.658;2023-04-01T20:26:08;97569.38;;;15.86;23.90
74798;BME280;63326;45.088;7.658;2023-04-01T20:28:45;97587.22;;;15.87;24.17
74798;BME280;63326;45.088;7.658;2023-04-01T20:31:24;97588.38;;;15.91;24.51
74798;BME280;63326;45.088;7.658;2023-04-01T20:36:36;97590.50;;;15.89;24.28
74798;BME280;63326;45.088;7.658;2023-04-01T20:42:40;97590.63;;;15.82;24.19
74798;BME280;63326;45.088;7.658;2023-04-01T20:45:37;97592.28;;;15.83;24.24
74798;BME280;63326;45.088;7.658;2023-04-01T20:50:59;97593.75;;;15.74;24.42
74798;BME280;63326;45.088;7.658;2023-04-01T20:58:54;97589.06;;;15.70;24.06
74798;BME280;63326;45.088;7.658;2023-04-01T21:05:11;97601.41;;;15.66;23.86
74798;BME280;63326;45.088;7.658;2023-04-01T21:07:50;97601.19;;;15.55;23.88
74798;BME280;63326;45.088;7.658;2023-04-01T21:15:50;97595.41;;;15.52;23.91
74798;BME280;63326;45.088;7.658;2023-04-01T21:29:16;97597.69;;;15.43;24.57
74798;BME280;63326;45.088;7.658;2023-04-01T21:34:48;97600.75;;;15.35;24.76
74798;BME280;63326;45.088;7.658;2023-04-01T21:37:45;97603.34;;;15.30;24.93
74798;BME280;63326;45.088;7.658;2023-04-01T21:43:39;97595.59;;;15.22;25.33
74798;BME280;63326;45.088;7.658;2023-04-01T22:04:51;97598.47;;;14.80;26.44
74798;BME280;63326;45.088;7.658;2023-04-01T22:07:23;97583.56;;;14.66;26.25
74798;BME280;63326;45.088;7.658;2023-04-01T22:09:55;97600.59;;;14.66;26.22
74798;BME280;63326;45.088;7.658;2023-04-01T22:17:37;97594.09;;;14.44;27.04
74798;BME280;63326;45.088;7.658;2023-04-01T22:20:25;97594.75;;;14.39;27.02
74798;BME280;63326;45.088;7.658;2023-04-01T22:23:10;97592.88;;;14.40;27.14
74798;BME280;63326;45.088;7.658;2023-04-01T22:28:42;97609.44;;;14.32;27.73
74798;BME280;63326;45.088;7.658;2023-04-01T22:31:14;97601.19;;;14.15;28.09
74798;BME280;63326;45.088;7.658;2023-04-01T22:34:13;97590.94;;;14.05;28.15
74798;BME280;63326;45.088;7.658;2023-04-01T22:37:07;97584.50;;;14.06;27.86
74798;BME280;63326;45.088;7.658;2023-04-01T22:40:03;97614.53;;;14.10;28.13
74798;BME280;63326;45.088;7.658;2023-04-01T22:42:53;97625.16;;;14.05;27.90